sensor_id;sensor_type;location;lat;lon;timestamp;P1;durP1;ratioP1;P2;durP2;ratioP2
54883;SDS011;40776;52.880;6.016;2023-07-13T00:01:34;15.55;;;5.32;;
54883;SDS011;40776;52.880;6.016;2023-07-13T00:04:03;16.25;;;4.45;;
54883;SDS011;40776;52.880;6.016;2023-07-13T00:06:30;15.43;;;3.20;;
54883;SDS011;40776;52.880;6.016;2023-07-13T00:08:58;9.52;;;2.83;;
54883;SDS011;40776;52.880;6.016;2023-07-13T00:11:24;14.30;;;3.20;;
54883;SDS011;40776;52.880;6.016;2023-07-13T00:13:50;19.85;;;3.20;;
54883;SDS011;40776;52.880;6.016;2023-07-13T00:16:17;17.42;;;3.60;;
54883;SDS011;40776;52.880;6.016;2023-07-13T00:18:44;22.75;;;4.47;;
54883;SDS011;40776;52.880;6.016;2023-07-13T00:21:10;17.73;;;4.30;;
54883;SDS011;40776;52.880;6.016;2023-07-13T00:23:38;23.83;;;4.10;;
54883;SDS011;40776;52.880;6.016;2023-07-13T00:26:04;17.67;;;3.90;;
54883;SDS011;40776;52.880;6.016;2023-07-13T00:28:31;15.73;;;3.95;;
54883;SDS011;40776;52.880;6.016;2023-07-13T00:30:58;16.20;;;3.90;;
54883;SDS011;40776;52.880;6.016;2023-07-13T00:33:24;16.27;;;3.97;;
54883;SDS011;40776;52.880;6.016;2023-07-13T00:35:51;16.90;;;3.72;;
54883;SDS011;40776;52.880;6.016;2023-07-13T00:38:17;16.30;;;3.72;;
54883;SDS011;40776;52.880;6.016;2023-07-13T00:40:43;17.88;;;3.58;;
54883;SDS011;40776;52.880;6.016;2023-07-13T00:43:22;16.45;;;4.18;;
54883;SDS011;40776;52.880;6.016;2023-07-13T00:48:19;17.38;;;3.72;;
54883;SDS011;40776;52.880;6.016;2023-07-13T00:50:46;15.93;;;3.45;;
54883;SDS011;40776;52.880;6.016;2023-07-13T00:53:14;19.05;;;3.90;;
54883;SDS011;40776;52.880;6.016;2023-07-13T00:55:40;18.55;;;4.70;;
54883;SDS011;40776;52.880;6.016;2023-07-13T00:58:06;17.25;;;4.40;;
54883;SDS011;40776;52.880;6.016;2023-07-13T01:00:33;15.73;;;3.60;;
54883;SDS011;40776;52.880;6.016;2023-07-13T01:03:01;14.27;;;3.75;;
54883;SDS011;40776;52.880;6.016;2023-07-13T01:05:32;13.25;;;3.20;;
54883;SDS011;40776;52.880;6.016;2023-07-13T01:07:59;13.75;;;3.38;;
54883;SDS011;40776;52.880;6.016;2023-07-13T01:10:26;23.85;;;4.95;;
54883;SDS011;40776;52.880;6.016;2023-07-13T01:12:53;19.50;;;4.32;;
54883;SDS011;40776;52.880;6.016;2023-07-13T01:18:04;18.77;;;5.20;;
54883;SDS011;40776;52.880;6.016;2023-07-13T01:20:31;9.43;;;3.38;;
54883;SDS011;40776;52.880;6.016;2023-07-13T01:23:11;12.07;;;3.38;;
54883;SDS011;40776;52.880;6.016;2023-07-13T01:25:38;14.68;;;4.07;;
54883;SDS011;40776;52.880;6.016;2023-07-13T01:28:07;10.50;;;3.40;;
54883;SDS011;40776;52.880;6.016;2023-07-13T01:30:38;13.68;;;3.30;;
54883;SDS011;40776;52.880;6.016;2023-07-13T01:33:08;17.45;;;4.90;;
54883;SDS011;40776;52.880;6.016;2023-07-13T01:35:35;10.02;;;3.60;;
54883;SDS011;40776;52.880;6.016;2023-07-13T01:38:01;17.83;;;3.65;;
54883;SDS011;40776;52.880;6.016;2023-07-13T01:40:28;13.15;;;3.50;;
54883;SDS011;40776;52.880;6.016;2023-07-13T01:42:54;10.73;;;2.97;;
54883;SDS011;40776;52.880;6.016;2023-07-13T01:45:21;15.25;;;2.97;;
54883;SDS011;40776;52.880;6.016;2023-07-13T01:47:47;13.48;;;3.05;;
54883;SDS011;40776;52.880;6.016;2023-07-13T01:50:13;8.10;;;2.22;;
54883;SDS011;40776;52.880;6.016;2023-07-13T01:52:39;13.63;;;3.30;;
54883;SDS011;40776;52.880;6.016;2023-07-13T01:55:05;11.88;;;2.70;;
54883;SDS011;40776;52.880;6.016;2023-07-13T01:57:32;10.43;;;2.25;;
54883;SDS011;40776;52.880;6.016;2023-07-13T01:59:58;12.15;;;2.85;;
54883;SDS011;40776;52.880;6.016;2023-07-13T02:02:24;13.35;;;3.15;;
54883;SDS011;40776;52.880;6.016;2023-07-13T02:04:50;10.85;;;2.50;;
54883;SDS011;40776;52.880;6.016;2023-07-13T02:07:16;11.88;;;3.20;;
54883;SDS011;40776;52.880;6.016;2023-07-13T02:09:42;13.40;;;2.42;;
54883;SDS011;40776;52.880;6.016;2023-07-13T02:12:08;13.23;;;3.08;;
54883;SDS011;40776;52.880;6.016;2023-07-13T02:14:35;13.73;;;3.17;;
54883;SDS011;40776;52.880;6.016;2023-07-13T02:17:01;11.82;;;2.72;;
54883;SDS011;40776;52.880;6.016;2023-07-13T02:19:27;10.15;;;2.85;;
54883;SDS011;40776;52.880;6.016;2023-07-13T02:21:53;11.93;;;3.10;;
54883;SDS011;40776;52.880;6.016;2023-07-13T02:24:22;13.00;;;2.90;;
54883;SDS011;40776;52.880;6.016;2023-07-13T02:26:49;13.05;;;2.80;;
54883;SDS011;40776;52.880;6.016;2023-07-13T02:29:15;14.52;;;3.20;;
54883;SDS011;40776;52.880;6.016;2023-07-13T02:31:41;14.10;;;3.05;;
54883;SDS011;40776;52.880;6.016;2023-07-13T02:34:09;15.05;;;3.17;;
54883;SDS011;40776;52.880;6.016;2023-07-13T02:36:35;16.88;;;4.20;;
54883;SDS011;40776;52.880;6.016;2023-07-13T02:39:03;16.20;;;3.17;;
54883;SDS011;40776;52.880;6.016;2023-07-13T02:41:29;15.70;;;2.90;;
54883;SDS011;40776;52.880;6.016;2023-07-13T02:43:57;19.42;;;5.13;;
54883;SDS011;40776;52.880;6.016;2023-07-13T02:46:31;10.82;;;3.20;;
54883;SDS011;40776;52.880;6.016;2023-07-13T02:48:57;17.70;;;3.50;;
54883;SDS011;40776;52.880;6.016;2023-07-13T02:51:24;16.27;;;3.50;;
54883;SDS011;40776;52.880;6.016;2023-07-13T02:53:50;17.50;;;3.28;;
54883;SDS011;40776;52.880;6.016;2023-07-13T02:56:16;10.82;;;3.70;;
54883;SDS011;40776;52.880;6.016;2023-07-13T02:58:42;15.25;;;3.80;;
54883;SDS011;40776;52.880;6.016;2023-07-13T03:01:09;12.40;;;3.53;;
54883;SDS011;40776;52.880;6.016;2023-07-13T03:03:35;17.83;;;4.07;;
54883;SDS011;40776;52.880;6.016;2023-07-13T03:06:02;12.85;;;3.70;;
54883;SDS011;40776;52.880;6.016;2023-07-13T03:08:30;14.88;;;3.90;;
54883;SDS011;40776;52.880;6.016;2023-07-13T03:11:04;11.15;;;3.47;;
54883;SDS011;40776;52.880;6.016;2023-07-13T03:13:30;18.40;;;4.70;;
54883;SDS011;40776;52.880;6.016;2023-07-13T03:15:56;14.93;;;3.15;;
54883;SDS011;40776;52.880;6.016;2023-07-13T03:18:22;13.18;;;4.00;;
54883;SDS011;40776;52.880;6.016;2023-07-13T03:20:52;18.42;;;4.03;;
54883;SDS011;40776;52.880;6.016;2023-07-13T03:23:18;13.27;;;3.67;;
54883;SDS011;40776;52.880;6.016;2023-07-13T03:25:44;14.23;;;3.75;;
54883;SDS011;40776;52.880;6.016;2023-07-13T03:28:11;22.83;;;4.60;;
54883;SDS011;40776;52.880;6.016;2023-07-13T03:30:37;23.17;;;5.20;;
54883;SDS011;40776;52.880;6.016;2023-07-13T03:33:03;22.00;;;4.40;;
54883;SDS011;40776;52.880;6.016;2023-07-13T03:35:29;14.63;;;4.90;;
54883;SDS011;40776;52.880;6.016;2023-07-13T03:37:57;17.45;;;3.67;;
54883;SDS011;40776;52.880;6.016;2023-07-13T03:40:24;14.88;;;3.85;;
54883;SDS011;40776;52.880;6.016;2023-07-13T03:42:51;22.88;;;5.40;;
54883;SDS011;40776;52.880;6.016;2023-07-13T03:45:17;11.57;;;3.72;;
54883;SDS011;40776;52.880;6.016;2023-07-13T03:47:43;12.18;;;3.38;;
54883;SDS011;40776;52.880;6.016;2023-07-13T03:50:09;16.40;;;3.45;;
54883;SDS011;40776;52.880;6.016;2023-07-13T03:52:36;14.43;;;3.95;;
54883;SDS011;40776;52.880;6.016;2023-07-13T03:55:02;22.63;;;4.25;;
54883;SDS011;40776;52.880;6.016;2023-07-13T03:57:28;15.82;;;3.42;;
54883;SDS011;40776;52.880;6.016;2023-07-13T03:59:54;15.70;;;3.60;;
54883;SDS011;40776;52.880;6.016;2023-07-13T04:02:20;13.80;;;3.75;;
54883;SDS011;40776;52.880;6.016;2023-07-13T04:04:46;18.98;;;4.05;;
54883;SDS011;40776;52.880;6.016;2023-07-13T04:07:13;16.60;;;4.03;;
54883;SDS011;40776;52.880;6.016;2023-07-13T04:09:39;12.15;;;3.10;;
54883;SDS011;40776;52.880;6.016;2023-07-13T04:12:05;18.08;;;3.88;;
54883;SDS011;40776;52.880;6.016;2023-07-13T04:14:31;11.73;;;4.45;;
54883;SDS011;40776;52.880;6.016;2023-07-13T04:16:58;13.48;;;3.78;;
54883;SDS011;40776;52.880;6.016;2023-07-13T04:19:24;10.95;;;3.13;;
54883;SDS011;40776;52.880;6.016;2023-07-13T04:21:50;12.63;;;3.40;;
54883;SDS011;40776;52.880;6.016;2023-07-13T04:24:16;8.15;;;2.22;;
54883;SDS011;40776;52.880;6.016;2023-07-13T04:26:42;12.55;;;4.78;;
54883;SDS011;40776;52.880;6.016;2023-07-13T04:29:08;11.55;;;2.90;;
54883;SDS011;40776;52.880;6.016;2023-07-13T04:31:35;9.70;;;2.40;;
54883;SDS011;40776;52.880;6.016;2023-07-13T04:34:01;9.18;;;2.60;;
54883;SDS011;40776;52.880;6.016;2023-07-13T04:36:28;6.32;;;2.72;;
54883;SDS011;40776;52.880;6.016;2023-07-13T04:38:54;15.70;;;3.83;;
54883;SDS011;40776;52.880;6.016;2023-07-13T04:41:22;10.88;;;2.50;;
54883;SDS011;40776;52.880;6.016;2023-07-13T04:43:48;11.88;;;3.95;;
54883;SDS011;40776;52.880;6.016;2023-07-13T04:46:15;10.38;;;2.63;;
54883;SDS011;40776;52.880;6.016;2023-07-13T04:51:11;16.83;;;3.78;;
54883;SDS011;40776;52.880;6.016;2023-07-13T04:53:37;13.60;;;3.10;;
54883;SDS011;40776;52.880;6.016;2023-07-13T04:56:04;15.45;;;4.40;;
54883;SDS011;40776;52.880;6.016;2023-07-13T04:58:30;13.50;;;4.03;;
54883;SDS011;40776;52.880;6.016;2023-07-13T05:01:00;13.07;;;3.50;;
54883;SDS011;40776;52.880;6.016;2023-07-13T05:03:26;20.17;;;5.68;;
54883;SDS011;40776;52.880;6.016;2023-07-13T05:05:56;13.68;;;3.05;;
54883;SDS011;40776;52.880;6.016;2023-07-13T05:10:48;15.15;;;3.40;;
54883;SDS011;40776;52.880;6.016;2023-07-13T05:13:14;14.55;;;3.45;;
54883;SDS011;40776;52.880;6.016;2023-07-13T05:15:40;13.18;;;4.22;;
54883;SDS011;40776;52.880;6.016;2023-07-13T05:18:06;14.90;;;4.25;;
54883;SDS011;40776;52.880;6.016;2023-07-13T05:20:32;12.55;;;3.10;;
54883;SDS011;40776;52.880;6.016;2023-07-13T05:22:59;17.10;;;3.78;;
54883;SDS011;40776;52.880;6.016;2023-07-13T05:25:25;10.30;;;3.10;;
54883;SDS011;40776;52.880;6.016;2023-07-13T05:27:51;14.00;;;2.50;;
54883;SDS011;40776;52.880;6.016;2023-07-13T05:30:17;8.05;;;2.53;;
54883;SDS011;40776;52.880;6.016;2023-07-13T05:32:43;14.15;;;2.75;;
54883;SDS011;40776;52.880;6.016;2023-07-13T05:35:09;12.18;;;2.85;;
54883;SDS011;40776;52.880;6.016;2023-07-13T05:37:35;17.08;;;2.97;;
54883;SDS011;40776;52.880;6.016;2023-07-13T05:40:01;11.93;;;2.80;;
54883;SDS011;40776;52.880;6.016;2023-07-13T05:42:27;11.52;;;3.03;;
54883;SDS011;40776;52.880;6.016;2023-07-13T05:44:53;10.95;;;3.20;;
54883;SDS011;40776;52.880;6.016;2023-07-13T05:47:19;21.48;;;3.50;;
54883;SDS011;40776;52.880;6.016;2023-07-13T05:49:45;12.15;;;2.58;;
54883;SDS011;40776;52.880;6.016;2023-07-13T05:52:11;16.80;;;3.00;;
54883;SDS011;40776;52.880;6.016;2023-07-13T05:54:37;13.40;;;3.30;;
54883;SDS011;40776;52.880;6.016;2023-07-13T05:57:03;14.23;;;2.88;;
54883;SDS011;40776;52.880;6.016;2023-07-13T05:59:30;12.55;;;3.15;;
54883;SDS011;40776;52.880;6.016;2023-07-13T06:01:56;10.25;;;2.90;;
54883;SDS011;40776;52.880;6.016;2023-07-13T06:04:22;11.30;;;3.13;;
54883;SDS011;40776;52.880;6.016;2023-07-13T06:06:48;14.13;;;2.75;;
54883;SDS011;40776;52.880;6.016;2023-07-13T06:09:14;11.43;;;3.50;;
54883;SDS011;40776;52.880;6.016;2023-07-13T06:11:40;9.88;;;3.22;;
54883;SDS011;40776;52.880;6.016;2023-07-13T06:14:06;9.40;;;2.58;;
54883;SDS011;40776;52.880;6.016;2023-07-13T06:16:33;8.35;;;2.78;;
54883;SDS011;40776;52.880;6.016;2023-07-13T06:18:59;9.40;;;2.40;;
54883;SDS011;40776;52.880;6.016;2023-07-13T06:21:24;10.50;;;3.38;;
54883;SDS011;40776;52.880;6.016;2023-07-13T06:23:51;15.35;;;2.95;;
54883;SDS011;40776;52.880;6.016;2023-07-13T06:26:18;12.02;;;2.63;;
54883;SDS011;40776;52.880;6.016;2023-07-13T06:28:44;8.90;;;2.55;;
54883;SDS011;40776;52.880;6.016;2023-07-13T06:31:11;10.05;;;2.70;;
54883;SDS011;40776;52.880;6.016;2023-07-13T06:33:37;9.32;;;2.60;;
54883;SDS011;40776;52.880;6.016;2023-07-13T06:36:04;8.85;;;2.53;;
54883;SDS011;40776;52.880;6.016;2023-07-13T06:38:31;8.52;;;2.08;;
54883;SDS011;40776;52.880;6.016;2023-07-13T06:40:57;8.93;;;3.28;;
54883;SDS011;40776;52.880;6.016;2023-07-13T06:43:23;9.55;;;2.70;;
54883;SDS011;40776;52.880;6.016;2023-07-13T06:45:50;7.75;;;2.30;;
54883;SDS011;40776;52.880;6.016;2023-07-13T06:48:17;7.22;;;2.00;;
54883;SDS011;40776;52.880;6.016;2023-07-13T06:50:43;4.68;;;1.30;;
54883;SDS011;40776;52.880;6.016;2023-07-13T06:53:10;7.60;;;1.58;;
54883;SDS011;40776;52.880;6.016;2023-07-13T06:55:37;10.52;;;1.67;;
54883;SDS011;40776;52.880;6.016;2023-07-13T06:58:04;5.85;;;1.40;;
54883;SDS011;40776;52.880;6.016;2023-07-13T07:00:30;4.80;;;1.70;;
54883;SDS011;40776;52.880;6.016;2023-07-13T07:02:56;5.70;;;1.40;;
54883;SDS011;40776;52.880;6.016;2023-07-13T07:05:21;8.77;;;1.35;;
54883;SDS011;40776;52.880;6.016;2023-07-13T07:07:49;6.03;;;1.50;;
54883;SDS011;40776;52.880;6.016;2023-07-13T07:10:15;7.07;;;1.33;;
54883;SDS011;40776;52.880;6.016;2023-07-13T07:12:41;8.90;;;2.03;;
54883;SDS011;40776;52.880;6.016;2023-07-13T07:15:07;9.45;;;2.20;;
54883;SDS011;40776;52.880;6.016;2023-07-13T07:17:33;11.38;;;2.45;;
54883;SDS011;40776;52.880;6.016;2023-07-13T07:19:59;13.57;;;2.53;;
54883;SDS011;40776;52.880;6.016;2023-07-13T07:22:25;9.75;;;2.40;;
54883;SDS011;40776;52.880;6.016;2023-07-13T07:24:55;8.43;;;2.03;;
54883;SDS011;40776;52.880;6.016;2023-07-13T07:27:21;7.32;;;2.10;;
54883;SDS011;40776;52.880;6.016;2023-07-13T07:29:47;7.40;;;1.88;;
54883;SDS011;40776;52.880;6.016;2023-07-13T07:32:13;8.45;;;2.25;;
54883;SDS011;40776;52.880;6.016;2023-07-13T07:34:40;9.48;;;3.28;;
54883;SDS011;40776;52.880;6.016;2023-07-13T07:37:06;5.68;;;1.83;;
54883;SDS011;40776;52.880;6.016;2023-07-13T07:39:32;14.98;;;3.13;;
54883;SDS011;40776;52.880;6.016;2023-07-13T07:41:58;13.40;;;3.13;;
54883;SDS011;40776;52.880;6.016;2023-07-13T07:44:24;12.73;;;2.80;;
54883;SDS011;40776;52.880;6.016;2023-07-13T07:46:52;9.98;;;2.53;;
54883;SDS011;40776;52.880;6.016;2023-07-13T07:49:17;10.27;;;3.30;;
54883;SDS011;40776;52.880;6.016;2023-07-13T07:51:43;9.07;;;2.70;;
54883;SDS011;40776;52.880;6.016;2023-07-13T07:54:09;8.93;;;2.70;;
54883;SDS011;40776;52.880;6.016;2023-07-13T07:56:35;16.90;;;3.25;;
54883;SDS011;40776;52.880;6.016;2023-07-13T07:59:01;9.93;;;2.80;;
54883;SDS011;40776;52.880;6.016;2023-07-13T08:01:27;13.77;;;2.60;;
54883;SDS011;40776;52.880;6.016;2023-07-13T08:03:53;10.13;;;2.40;;
54883;SDS011;40776;52.880;6.016;2023-07-13T08:06:19;10.55;;;2.60;;
54883;SDS011;40776;52.880;6.016;2023-07-13T08:08:45;13.25;;;3.20;;
54883;SDS011;40776;52.880;6.016;2023-07-13T08:11:11;10.65;;;3.03;;
54883;SDS011;40776;52.880;6.016;2023-07-13T08:13:37;9.15;;;3.17;;
54883;SDS011;40776;52.880;6.016;2023-07-13T08:16:04;12.65;;;3.17;;
54883;SDS011;40776;52.880;6.016;2023-07-13T08:18:31;10.02;;;2.75;;
54883;SDS011;40776;52.880;6.016;2023-07-13T08:20:57;11.60;;;2.88;;
54883;SDS011;40776;52.880;6.016;2023-07-13T08:23:24;13.25;;;3.55;;
54883;SDS011;40776;52.880;6.016;2023-07-13T08:25:53;13.55;;;3.00;;
54883;SDS011;40776;52.880;6.016;2023-07-13T08:28:20;4.32;;;1.45;;
54883;SDS011;40776;52.880;6.016;2023-07-13T08:30:46;5.60;;;1.38;;
54883;SDS011;40776;52.880;6.016;2023-07-13T08:33:17;5.35;;;1.38;;
54883;SDS011;40776;52.880;6.016;2023-07-13T08:35:50;5.28;;;1.77;;
54883;SDS011;40776;52.880;6.016;2023-07-13T08:38:16;3.15;;;1.17;;
54883;SDS011;40776;52.880;6.016;2023-07-13T08:40:43;5.68;;;1.40;;
54883;SDS011;40776;52.880;6.016;2023-07-13T08:43:14;2.13;;;1.20;;
54883;SDS011;40776;52.880;6.016;2023-07-13T08:45:45;4.38;;;1.17;;
54883;SDS011;40776;52.880;6.016;2023-07-13T08:48:35;4.03;;;1.20;;
54883;SDS011;40776;52.880;6.016;2023-07-13T08:53:51;5.47;;;1.30;;
54883;SDS011;40776;52.880;6.016;2023-07-13T08:56:22;6.72;;;1.50;;
54883;SDS011;40776;52.880;6.016;2023-07-13T08:58:50;4.38;;;1.10;;
54883;SDS011;40776;52.880;6.016;2023-07-13T09:03:47;2.78;;;1.10;;
54883;SDS011;40776;52.880;6.016;2023-07-13T09:06:23;7.85;;;1.85;;
54883;SDS011;40776;52.880;6.016;2023-07-13T09:08:58;3.60;;;1.50;;
54883;SDS011;40776;52.880;6.016;2023-07-13T09:11:46;2.67;;;1.25;;
54883;SDS011;40776;52.880;6.016;2023-07-13T09:16:58;3.35;;;1.10;;
54883;SDS011;40776;52.880;6.016;2023-07-13T09:19:28;5.88;;;1.23;;
54883;SDS011;40776;52.880;6.016;2023-07-13T09:21:57;4.13;;;1.30;;
54883;SDS011;40776;52.880;6.016;2023-07-13T09:24:37;5.10;;;1.27;;
54883;SDS011;40776;52.880;6.016;2023-07-13T09:27:35;3.70;;;1.30;;
54883;SDS011;40776;52.880;6.016;2023-07-13T09:32:50;3.63;;;0.85;;
54883;SDS011;40776;52.880;6.016;2023-07-13T09:35:25;4.93;;;0.95;;
54883;SDS011;40776;52.880;6.016;2023-07-13T09:37:56;1.95;;;0.85;;
54883;SDS011;40776;52.880;6.016;2023-07-13T09:43:20;3.60;;;1.05;;
54883;SDS011;40776;52.880;6.016;2023-07-13T09:45:47;3.10;;;1.00;;
54883;SDS011;40776;52.880;6.016;2023-07-13T09:48:13;3.15;;;1.23;;
54883;SDS011;40776;52.880;6.016;2023-07-13T09:50:41;5.85;;;1.10;;
54883;SDS011;40776;52.880;6.016;2023-07-13T09:53:25;4.80;;;1.27;;
54883;SDS011;40776;52.880;6.016;2023-07-13T09:55:56;4.53;;;1.00;;
54883;SDS011;40776;52.880;6.016;2023-07-13T09:58:25;3.92;;;1.08;;
54883;SDS011;40776;52.880;6.016;2023-07-13T10:01:03;4.43;;;1.20;;
54883;SDS011;40776;52.880;6.016;2023-07-13T10:03:33;4.32;;;1.30;;
54883;SDS011;40776;52.880;6.016;2023-07-13T10:06:11;5.45;;;1.27;;
54883;SDS011;40776;52.880;6.016;2023-07-13T10:08:39;5.13;;;1.17;;
54883;SDS011;40776;52.880;6.016;2023-07-13T10:11:09;5.07;;;1.27;;
54883;SDS011;40776;52.880;6.016;2023-07-13T10:13:42;5.57;;;1.13;;
54883;SDS011;40776;52.880;6.016;2023-07-13T10:16:10;5.10;;;1.67;;
54883;SDS011;40776;52.880;6.016;2023-07-13T10:18:55;5.78;;;1.27;;
54883;SDS011;40776;52.880;6.016;2023-07-13T10:21:52;4.38;;;1.40;;
54883;SDS011;40776;52.880;6.016;2023-07-13T10:29:34;4.80;;;1.15;;
54883;SDS011;40776;52.880;6.016;2023-07-13T10:32:04;4.50;;;1.38;;
54883;SDS011;40776;52.880;6.016;2023-07-13T10:34:36;3.47;;;1.17;;
54883;SDS011;40776;52.880;6.016;2023-07-13T10:37:02;4.30;;;1.30;;
54883;SDS011;40776;52.880;6.016;2023-07-13T10:39:30;5.68;;;1.45;;
54883;SDS011;40776;52.880;6.016;2023-07-13T10:41:59;3.03;;;1.40;;
54883;SDS011;40776;52.880;6.016;2023-07-13T10:44:30;3.95;;;1.02;;
54883;SDS011;40776;52.880;6.016;2023-07-13T10:47:04;7.70;;;1.48;;
54883;SDS011;40776;52.880;6.016;2023-07-13T10:49:34;7.97;;;2.00;;
54883;SDS011;40776;52.880;6.016;2023-07-13T10:52:01;5.00;;;1.48;;
54883;SDS011;40776;52.880;6.016;2023-07-13T10:54:34;3.75;;;1.23;;
54883;SDS011;40776;52.880;6.016;2023-07-13T10:57:19;3.47;;;1.25;;
54883;SDS011;40776;52.880;6.016;2023-07-13T11:00:10;4.22;;;1.50;;
54883;SDS011;40776;52.880;6.016;2023-07-13T11:02:40;6.95;;;1.23;;
54883;SDS011;40776;52.880;6.016;2023-07-13T11:10:58;4.47;;;1.48;;
54883;SDS011;40776;52.880;6.016;2023-07-13T11:16:13;6.30;;;1.85;;
54883;SDS011;40776;52.880;6.016;2023-07-13T11:21:27;5.30;;;1.50;;
54883;SDS011;40776;52.880;6.016;2023-07-13T11:24:13;3.95;;;1.30;;
54883;SDS011;40776;52.880;6.016;2023-07-13T11:32:02;6.20;;;1.65;;
54883;SDS011;40776;52.880;6.016;2023-07-13T11:34:51;4.25;;;1.77;;
54883;SDS011;40776;52.880;6.016;2023-07-13T11:37:19;5.90;;;1.83;;
54883;SDS011;40776;52.880;6.016;2023-07-13T11:39:47;3.97;;;1.27;;
54883;SDS011;40776;52.880;6.016;2023-07-13T11:42:15;2.70;;;0.80;;
54883;SDS011;40776;52.880;6.016;2023-07-13T11:44:43;2.78;;;1.02;;
54883;SDS011;40776;52.880;6.016;2023-07-13T11:47:18;4.25;;;1.20;;
54883;SDS011;40776;52.880;6.016;2023-07-13T11:49:50;4.50;;;1.23;;
54883;SDS011;40776;52.880;6.016;2023-07-13T11:52:22;7.97;;;1.88;;
54883;SDS011;40776;52.880;6.016;2023-07-13T11:54:55;5.38;;;1.60;;
54883;SDS011;40776;52.880;6.016;2023-07-13T11:57:28;2.85;;;1.08;;
54883;SDS011;40776;52.880;6.016;2023-07-13T11:59:56;3.95;;;1.35;;
54883;SDS011;40776;52.880;6.016;2023-07-13T12:02:34;3.75;;;1.42;;
54883;SDS011;40776;52.880;6.016;2023-07-13T12:05:04;5.32;;;1.40;;
54883;SDS011;40776;52.880;6.016;2023-07-13T12:07:32;4.32;;;1.27;;
54883;SDS011;40776;52.880;6.016;2023-07-13T12:10:18;6.88;;;1.35;;
54883;SDS011;40776;52.880;6.016;2023-07-13T12:15:21;2.72;;;1.10;;
54883;SDS011;40776;52.880;6.016;2023-07-13T12:17:47;5.00;;;1.30;;
54883;SDS011;40776;52.880;6.016;2023-07-13T12:20:26;2.38;;;0.90;;
54883;SDS011;40776;52.880;6.016;2023-07-13T12:22:53;5.68;;;1.05;;
54883;SDS011;40776;52.880;6.016;2023-07-13T12:25:19;3.60;;;1.02;;
54883;SDS011;40776;52.880;6.016;2023-07-13T12:27:46;2.13;;;0.70;;
54883;SDS011;40776;52.880;6.016;2023-07-13T12:30:31;4.43;;;1.00;;
54883;SDS011;40776;52.880;6.016;2023-07-13T12:35:30;3.13;;;0.95;;
54883;SDS011;40776;52.880;6.016;2023-07-13T12:37:58;5.03;;;1.25;;
54883;SDS011;40776;52.880;6.016;2023-07-13T12:40:27;3.50;;;1.00;;
54883;SDS011;40776;52.880;6.016;2023-07-13T12:42:58;4.00;;;1.15;;
54883;SDS011;40776;52.880;6.016;2023-07-13T12:45:25;2.50;;;0.90;;
54883;SDS011;40776;52.880;6.016;2023-07-13T12:47:55;3.78;;;1.10;;
54883;SDS011;40776;52.880;6.016;2023-07-13T12:50:40;5.40;;;1.45;;
54883;SDS011;40776;52.880;6.016;2023-07-13T12:53:15;6.47;;;1.23;;
54883;SDS011;40776;52.880;6.016;2023-07-13T12:55:46;4.72;;;2.08;;
54883;SDS011;40776;52.880;6.016;2023-07-13T13:01:19;4.72;;;1.20;;
54883;SDS011;40776;52.880;6.016;2023-07-13T13:03:51;6.53;;;1.15;;
54883;SDS011;40776;52.880;6.016;2023-07-13T13:08:47;4.50;;;0.90;;
54883;SDS011;40776;52.880;6.016;2023-07-13T13:11:14;3.50;;;0.90;;
54883;SDS011;40776;52.880;6.016;2023-07-13T13:13:44;3.15;;;0.82;;
54883;SDS011;40776;52.880;6.016;2023-07-13T13:18:52;2.47;;;1.10;;
54883;SDS011;40776;52.880;6.016;2023-07-13T13:21:19;3.78;;;1.33;;
54883;SDS011;40776;52.880;6.016;2023-07-13T13:23:46;4.25;;;1.20;;
54883;SDS011;40776;52.880;6.016;2023-07-13T13:26:14;4.88;;;1.25;;
54883;SDS011;40776;52.880;6.016;2023-07-13T13:28:41;4.72;;;0.80;;
54883;SDS011;40776;52.880;6.016;2023-07-13T13:31:09;4.07;;;1.05;;
54883;SDS011;40776;52.880;6.016;2023-07-13T13:33:42;3.30;;;0.88;;
54883;SDS011;40776;52.880;6.016;2023-07-13T13:36:14;6.57;;;1.42;;
54883;SDS011;40776;52.880;6.016;2023-07-13T13:38:58;5.90;;;1.65;;
54883;SDS011;40776;52.880;6.016;2023-07-13T13:41:27;7.28;;;1.17;;
54883;SDS011;40776;52.880;6.016;2023-07-13T13:43:58;3.67;;;1.05;;
54883;SDS011;40776;52.880;6.016;2023-07-13T13:46:24;5.20;;;1.23;;
54883;SDS011;40776;52.880;6.016;2023-07-13T13:48:50;6.32;;;1.25;;
54883;SDS011;40776;52.880;6.016;2023-07-13T13:51:17;5.22;;;1.20;;
54883;SDS011;40776;52.880;6.016;2023-07-13T13:53:46;3.47;;;1.40;;
54883;SDS011;40776;52.880;6.016;2023-07-13T13:56:13;7.47;;;1.50;;
54883;SDS011;40776;52.880;6.016;2023-07-13T13:58:39;3.85;;;1.55;;
54883;SDS011;40776;52.880;6.016;2023-07-13T14:01:10;4.47;;;1.30;;
54883;SDS011;40776;52.880;6.016;2023-07-13T14:03:37;3.28;;;1.23;;
54883;SDS011;40776;52.880;6.016;2023-07-13T14:06:03;4.15;;;1.10;;
54883;SDS011;40776;52.880;6.016;2023-07-13T14:08:29;7.15;;;1.80;;
54883;SDS011;40776;52.880;6.016;2023-07-13T14:10:56;7.60;;;1.75;;
54883;SDS011;40776;52.880;6.016;2023-07-13T14:13:34;5.90;;;1.70;;
54883;SDS011;40776;52.880;6.016;2023-07-13T14:16:08;5.40;;;1.33;;
54883;SDS011;40776;52.880;6.016;2023-07-13T14:18:35;3.90;;;1.50;;
54883;SDS011;40776;52.880;6.016;2023-07-13T14:21:00;5.22;;;1.38;;
54883;SDS011;40776;52.880;6.016;2023-07-13T14:23:26;7.15;;;1.95;;
54883;SDS011;40776;52.880;6.016;2023-07-13T14:25:57;4.22;;;1.10;;
54883;SDS011;40776;52.880;6.016;2023-07-13T14:28:25;5.50;;;1.45;;
54883;SDS011;40776;52.880;6.016;2023-07-13T14:30:55;6.25;;;1.73;;
54883;SDS011;40776;52.880;6.016;2023-07-13T14:33:21;6.00;;;1.42;;
54883;SDS011;40776;52.880;6.016;2023-07-13T14:35:48;6.60;;;1.40;;
54883;SDS011;40776;52.880;6.016;2023-07-13T14:38:15;5.43;;;1.38;;
54883;SDS011;40776;52.880;6.016;2023-07-13T14:40:43;6.30;;;1.50;;
54883;SDS011;40776;52.880;6.016;2023-07-13T14:43:18;2.53;;;1.23;;
54883;SDS011;40776;52.880;6.016;2023-07-13T14:45:45;5.88;;;1.50;;
54883;SDS011;40776;52.880;6.016;2023-07-13T14:50:40;6.85;;;1.70;;
54883;SDS011;40776;52.880;6.016;2023-07-13T14:53:09;9.63;;;1.77;;
54883;SDS011;40776;52.880;6.016;2023-07-13T14:55:43;6.40;;;1.55;;
54883;SDS011;40776;52.880;6.016;2023-07-13T14:58:09;7.60;;;2.08;;
54883;SDS011;40776;52.880;6.016;2023-07-13T15:00:35;5.68;;;1.60;;
54883;SDS011;40776;52.880;6.016;2023-07-13T15:03:02;6.00;;;1.70;;
54883;SDS011;40776;52.880;6.016;2023-07-13T15:05:32;4.68;;;1.40;;
54883;SDS011;40776;52.880;6.016;2023-07-13T15:08:01;4.63;;;1.80;;
54883;SDS011;40776;52.880;6.016;2023-07-13T15:10:30;7.10;;;1.75;;
54883;SDS011;40776;52.880;6.016;2023-07-13T15:15:29;6.03;;;1.90;;
54883;SDS011;40776;52.880;6.016;2023-07-13T15:17:59;4.70;;;1.80;;
54883;SDS011;40776;52.880;6.016;2023-07-13T15:20:32;9.57;;;1.60;;
54883;SDS011;40776;52.880;6.016;2023-07-13T15:23:03;6.60;;;1.40;;
54883;SDS011;40776;52.880;6.016;2023-07-13T15:25:33;7.40;;;1.70;;
54883;SDS011;40776;52.880;6.016;2023-07-13T15:28:00;7.55;;;1.73;;
54883;SDS011;40776;52.880;6.016;2023-07-13T15:30:28;5.20;;;1.90;;
54883;SDS011;40776;52.880;6.016;2023-07-13T15:32:57;6.23;;;1.60;;
54883;SDS011;40776;52.880;6.016;2023-07-13T15:35:35;6.00;;;1.88;;
54883;SDS011;40776;52.880;6.016;2023-07-13T15:38:00;5.22;;;1.50;;
54883;SDS011;40776;52.880;6.016;2023-07-13T15:40:28;6.28;;;1.48;;
54883;SDS011;40776;52.880;6.016;2023-07-13T15:42:54;6.07;;;1.70;;
54883;SDS011;40776;52.880;6.016;2023-07-13T15:45:22;4.50;;;1.60;;
54883;SDS011;40776;52.880;6.016;2023-07-13T15:47:51;4.25;;;1.70;;
54883;SDS011;40776;52.880;6.016;2023-07-13T15:50:21;5.82;;;2.00;;
54883;SDS011;40776;52.880;6.016;2023-07-13T15:52:50;5.22;;;1.20;;